createdAt,value
2023-04-11T00:02:40.948Z,96991.69
2023-04-11T00:05:42.924Z,96985.91
2023-04-11T00:08:44.596Z,97013.75
2023-04-11T00:11:46.210Z,96996.59
2023-04-11T00:14:49.074Z,96997.66
2023-04-11T00:17:50.969Z,96971.25
2023-04-11T00:20:52.547Z,96934.22
2023-04-11T00:23:54.449Z,96958.31
2023-04-11T00:26:56.912Z,96912.66
2023-04-11T00:29:58.399Z,96924.03
2023-04-11T00:32:59.884Z,96932.84
2023-04-11T00:36:01.489Z,96928.31
2023-04-11T00:39:03.788Z,96913.56
2023-04-11T00:42:07.170Z,96931.50
2023-04-11T00:45:09.287Z,96917.56
2023-04-11T00:48:11.037Z,96946.28
2023-04-11T00:51:12.861Z,96949.19
2023-04-11T00:54:14.337Z,96955.22
2023-04-11T00:57:16.145Z,96950.00
2023-04-11T01:00:17.691Z,96958.94
2023-04-11T01:03:19.604Z,96964.22
2023-04-11T01:06:23.656Z,96963.03
2023-04-11T01:09:28.597Z,96946.34
2023-04-11T01:12:30.752Z,96974.09
2023-04-11T01:15:32.395Z,96974.00
2023-04-11T01:18:34.139Z,96954.31
2023-04-11T01:21:37.779Z,96941.09
2023-04-11T01:24:39.293Z,96948.06
2023-04-11T01:27:42.293Z,96959.03
2023-04-11T01:30:43.892Z,96950.16
2023-04-11T01:33:45.478Z,96942.31
2023-04-11T01:36:47.654Z,96961.84
2023-04-11T01:39:49.204Z,96952.97
2023-04-11T01:42:51.861Z,96993.41
2023-04-11T01:45:55.821Z,96962.72
2023-04-11T01:48:58.589Z,96964.13
2023-04-11T01:52:00.627Z,96982.66
2023-04-11T01:55:02.175Z,96987.88
2023-04-11T01:58:03.916Z,96976.81
2023-04-11T02:01:05.655Z,96973.63
2023-04-11T02:04:07.300Z,96982.53
2023-04-11T02:07:08.825Z,96961.59
2023-04-11T02:10:10.630Z,96979.63
2023-04-11T02:13:12.127Z,96966.88
2023-04-11T02:16:15.008Z,96975.41
2023-04-11T02:19:16.884Z,96976.03
2023-04-11T02:22:18.418Z,96967.19
2023-04-11T02:25:21.346Z,96966.66
2023-04-11T02:28:22.793Z,96977.91
2023-04-11T02:31:27.406Z,96976.78
2023-04-11T02:34:28.927Z,96968.63
2023-04-11T02:37:30.916Z,96966.72
2023-04-11T02:40:32.416Z,96968.22
2023-04-11T02:43:34.161Z,96963.22
2023-04-11T02:46:35.732Z,96979.44
2023-04-11T02:49:41.235Z,96957.28
2023-04-11T02:52:47.234Z,96973.81
2023-04-11T02:55:50.484Z,96951.06
2023-04-11T02:58:55.036Z,96950.41
2023-04-11T03:01:59.957Z,96954.69
2023-04-11T03:05:05.155Z,96947.47
2023-04-11T03:08:09.929Z,96959.72
2023-04-11T03:11:15.332Z,96953.88
2023-04-11T03:14:17.356Z,96969.75
2023-04-11T03:17:19.063Z,96967.75
2023-04-11T03:20:20.712Z,96968.81
2023-04-11T03:23:26.790Z,96962.97
2023-04-11T03:26:28.389Z,96961.09
2023-04-11T03:29:33.986Z,96961.00
2023-04-11T03:32:43.321Z,96968.19
2023-04-11T03:35:44.874Z,96961.81
2023-04-11T03:38:46.356Z,96950.66
2023-04-11T03:41:48.789Z,96943.53
2023-04-11T03:44:50.381Z,96941.44
2023-04-11T03:47:52.072Z,96949.47
2023-04-11T03:50:57.025Z,96966.91
2023-04-11T03:54:07.585Z,96972.25
2023-04-11T03:57:13.437Z,96975.97
2023-04-11T04:00:15.115Z,96990.59
2023-04-11T04:03:16.821Z,96972.25
2023-04-11T04:06:19.573Z,96982.03
2023-04-11T04:09:24.014Z,96989.50
2023-04-11T04:12:29.593Z,96980.97
2023-04-11T04:15:45.600Z,96974.56
2023-04-11T04:18:48.803Z,96985.97
2023-04-11T04:21:50.384Z,96980.19
2023-04-11T04:24:53.232Z,96988.06
2023-04-11T04:27:58.211Z,96980.19
2023-04-11T04:31:02.191Z,96983.88
2023-04-11T04:34:09.868Z,96980.38
2023-04-11T04:37:23.155Z,96981.47
2023-04-11T04:40:31.747Z,96976.69
2023-04-11T04:43:37.957Z,96976.56
2023-04-11T04:46:59.662Z,96991.91
2023-04-11T04:50:03.645Z,97010.34
2023-04-11T04:53:07.161Z,97069.66
2023-04-11T04:56:08.988Z,97042.72
2023-04-11T04:59:16.141Z,97074.94
2023-04-11T05:02:22.596Z,97085.22
2023-04-11T05:05:24.978Z,97073.78
2023-04-11T05:08:27.117Z,97134.03
2023-04-11T05:11:31.916Z,97131.75
2023-04-11T05:14:33.570Z,97156.94
2023-04-11T05:17:36.102Z,97147.13
2023-04-11T05:20:38.089Z,97142.84
2023-04-11T05:23:40.312Z,97152.25
2023-04-11T05:26:41.982Z,97161.06
2023-04-11T05:29:45.832Z,97163.50
2023-04-11T05:32:49.368Z,97188.06
2023-04-11T05:35:51.827Z,97183.97
2023-04-11T05:38:53.316Z,97195.44
2023-04-11T05:41:55.104Z,97204.84
2023-04-11T05:44:56.539Z,97199.94
2023-04-11T05:47:58.229Z,97201.38
2023-04-11T05:50:59.895Z,97197.88
2023-04-11T05:54:01.352Z,97205.28
2023-04-11T05:57:03.434Z,97206.31
2023-04-11T06:00:16.852Z,97213.66
2023-04-11T06:03:18.514Z,97219.22
2023-04-11T06:06:20.100Z,97209.38
2023-04-11T06:09:21.666Z,97211.44
2023-04-11T06:12:23.117Z,97202.63
2023-04-11T06:15:26.676Z,97224.75
2023-04-11T06:18:28.193Z,97208.97
2023-04-11T06:21:29.662Z,97203.22
2023-04-11T06:24:36.069Z,97199.34
2023-04-11T06:27:37.567Z,97211.03
2023-04-11T06:30:39.052Z,97213.84
2023-04-11T06:33:40.564Z,97222.88
2023-04-11T06:36:42.668Z,97232.94
2023-04-11T06:39:44.325Z,97226.38
2023-04-11T06:42:47.002Z,97232.53
2023-04-11T06:45:49.720Z,97235.97
2023-04-11T06:48:51.209Z,97242.34
2023-04-11T06:51:54.103Z,97247.69
2023-04-11T06:54:55.831Z,97248.72
2023-04-11T06:57:57.341Z,97260.38
2023-04-11T07:00:58.792Z,97244.53
2023-04-11T07:04:00.743Z,97248.63
2023-04-11T07:07:02.456Z,97262.56
2023-04-11T07:10:05.078Z,97257.81
2023-04-11T07:13:06.501Z,97271.16
2023-04-11T07:16:08.500Z,97270.16
2023-04-11T07:19:10.069Z,97279.59
2023-04-11T07:22:11.515Z,97269.94
2023-04-11T07:25:13.212Z,97266.63
2023-04-11T07:28:14.699Z,97256.81
2023-04-11T07:31:17.997Z,97265.56
2023-04-11T07:34:19.541Z,97254.88
2023-04-11T07:37:21.556Z,97256.28
2023-04-11T07:40:23.088Z,97256.47
2023-04-11T07:43:28.609Z,97241.03
2023-04-11T07:46:30.230Z,97251.69
2023-04-11T07:49:31.710Z,97257.19
2023-04-11T07:52:33.142Z,97263.06
2023-04-11T07:55:34.621Z,97268.16
2023-04-11T07:58:36.098Z,97263.56
2023-04-11T08:01:37.663Z,97273.09
2023-04-11T08:04:39.351Z,97272.75
2023-04-11T08:07:41.766Z,97265.94
2023-04-11T08:10:43.312Z,97272.19
2023-04-11T08:13:45.181Z,97270.22
2023-04-11T08:16:46.954Z,97283.28
2023-04-11T08:19:48.416Z,97283.28
2023-04-11T08:22:50.170Z,97295.09
2023-04-11T08:25:51.675Z,97292.75
2023-04-11T08:28:53.127Z,97285.94
2023-04-11T08:31:54.579Z,97285.09
2023-04-11T08:34:56.084Z,97290.94
2023-04-11T08:37:57.559Z,97281.84
2023-04-11T08:40:59.095Z,97281.47
2023-04-11T08:44:00.774Z,97293.41
2023-04-11T08:47:02.692Z,97288.34
2023-04-11T08:50:08.214Z,97287.41
2023-04-11T08:53:10.584Z,97297.81
2023-04-11T08:56:18.210Z,97290.00
2023-04-11T08:59:19.670Z,97291.69
2023-04-11T09:02:21.873Z,97288.91
2023-04-11T09:05:28.087Z,97298.38
2023-04-11T09:08:38.120Z,97295.66
2023-04-11T09:11:53.248Z,97285.59
2023-04-11T09:14:54.785Z,97286.63
2023-04-11T09:18:00.375Z,97295.31
2023-04-11T09:21:06.004Z,97295.88
2023-04-11T09:24:17.956Z,97297.06
2023-04-11T09:27:24.275Z,97292.31
2023-04-11T09:30:26.706Z,97268.75
2023-04-11T09:33:31.680Z,97273.78
2023-04-11T09:36:33.260Z,97268.91
2023-04-11T09:39:34.883Z,97270.16
2023-04-11T09:42:36.464Z,97273.50
2023-04-11T09:45:47.817Z,97267.84
2023-04-11T09:48:54.848Z,97269.59
2023-04-11T09:51:57.725Z,97257.66
2023-04-11T09:55:00.645Z,97279.53
2023-04-11T09:58:04.795Z,97274.28
2023-04-11T10:01:08.897Z,97271.22
2023-04-11T10:04:13.772Z,97287.63
2023-04-11T10:07:18.461Z,97279.59
2023-04-11T10:10:23.262Z,97277.00
2023-04-11T10:13:44.061Z,97282.97
2023-04-11T10:17:12.906Z,97269.84
2023-04-11T10:20:43.476Z,97272.00
2023-04-11T10:24:21.334Z,97276.28
2023-04-11T10:27:50.654Z,97275.19
2023-04-11T10:30:58.833Z,97270.19
2023-04-11T10:34:16.802Z,97271.88
2023-04-11T10:37:19.194Z,97264.16
2023-04-11T10:40:21.087Z,97261.94
2023-04-11T10:43:22.704Z,97272.00
2023-04-11T10:46:26.531Z,97270.34
2023-04-11T10:49:39.198Z,97269.72
2023-04-11T10:52:41.685Z,97270.88
2023-04-11T10:55:43.940Z,97258.75
2023-04-11T10:58:45.461Z,97265.47
2023-04-11T11:01:54.792Z,97270.19
2023-04-11T11:04:56.360Z,97265.16
2023-04-11T11:07:58.005Z,97261.81
2023-04-11T11:11:10.633Z,97265.25
2023-04-11T11:14:28.501Z,97276.81
2023-04-11T11:17:29.992Z,97297.94
2023-04-11T11:20:31.477Z,97278.56
2023-04-11T11:23:34.364Z,97282.53
2023-04-11T11:26:40.159Z,97279.63
2023-04-11T11:29:41.707Z,97286.69
2023-04-11T11:32:43.262Z,97278.28
2023-04-11T11:36:00.555Z,97288.03
2023-04-11T11:39:05.327Z,97281.31
2023-04-11T11:42:06.908Z,97270.72
2023-04-11T11:45:18.991Z,97280.09
2023-04-11T11:48:24.587Z,97268.00
2023-04-11T11:51:26.662Z,97272.41
2023-04-11T11:54:28.128Z,97282.31
2023-04-11T11:57:29.670Z,97283.44
2023-04-11T12:00:39.350Z,97281.31
2023-04-11T12:03:41.100Z,97285.41
2023-04-11T12:06:45.759Z,97267.84
2023-04-11T12:09:50.989Z,97278.13
2023-04-11T12:12:53.582Z,97282.44
2023-04-11T12:15:57.492Z,97259.47
2023-04-11T12:19:00.665Z,97267.44
2023-04-11T12:22:02.153Z,97266.47
2023-04-11T12:25:07.834Z,97278.59
2023-04-11T12:28:10.002Z,97265.94
2023-04-11T12:31:12.408Z,97264.34
2023-04-11T12:34:13.880Z,97270.22
2023-04-11T12:37:15.304Z,97259.88
2023-04-11T12:40:17.929Z,97264.38
2023-04-11T12:43:19.397Z,97261.72
2023-04-11T12:46:20.881Z,97265.94
2023-04-11T12:49:22.345Z,97263.19
2023-04-11T12:52:25.287Z,97254.63
2023-04-11T12:55:26.918Z,97256.09
2023-04-11T12:58:28.743Z,97253.47
2023-04-11T13:01:30.590Z,97250.59
2023-04-11T13:04:32.157Z,97242.72
2023-04-11T13:07:34.940Z,97247.63
2023-04-11T13:10:36.481Z,97252.50
2023-04-11T13:13:37.998Z,97259.31
2023-04-11T13:16:39.480Z,97258.16
2023-04-11T13:19:41.114Z,97260.19
2023-04-11T13:22:43.069Z,97257.56
2023-04-11T13:25:44.594Z,97254.09
2023-04-11T13:28:46.397Z,97241.28
2023-04-11T13:31:48.028Z,97244.13
2023-04-11T13:34:49.511Z,97246.56
2023-04-11T13:37:51.970Z,97237.19
2023-04-11T13:40:53.530Z,97247.19
2023-04-11T13:43:54.928Z,97247.22
2023-04-11T13:46:56.716Z,97240.75
2023-04-11T13:49:58.227Z,97244.22
2023-04-11T13:52:59.776Z,97242.06
2023-04-11T13:56:03.056Z,97225.34
2023-04-11T13:59:04.582Z,97230.00
2023-04-11T14:02:06.163Z,97230.47
2023-04-11T14:05:09.200Z,97216.47
2023-04-11T14:08:10.663Z,97220.34
2023-04-11T14:11:12.390Z,97238.53
2023-04-11T14:14:13.939Z,97229.56
2023-04-11T14:17:15.933Z,97211.09
2023-04-11T14:20:17.530Z,97222.00
2023-04-11T14:23:20.643Z,97212.94
2023-04-11T14:26:22.096Z,97217.66
2023-04-11T14:29:23.707Z,97211.25
2023-04-11T14:32:25.398Z,97209.56
2023-04-11T14:35:27.069Z,97207.13
2023-04-11T14:38:28.605Z,97203.06
2023-04-11T14:41:30.136Z,97217.19
2023-04-11T14:44:31.579Z,97218.78
2023-04-11T14:47:33.114Z,97222.09
2023-04-11T14:50:34.656Z,97211.16
2023-04-11T14:53:36.793Z,97210.09
2023-04-11T14:56:38.442Z,97193.63
2023-04-11T14:59:39.898Z,97179.53
2023-04-11T15:02:41.387Z,97174.31
2023-04-11T15:05:42.934Z,97171.72
2023-04-11T15:08:44.561Z,97167.31
2023-04-11T15:11:47.124Z,97163.72
2023-04-11T15:14:48.933Z,97167.44
2023-04-11T15:18:19.302Z,97170.81
2023-04-11T15:21:20.898Z,97173.16
2023-04-11T15:24:22.459Z,97154.94
2023-04-11T15:27:23.943Z,97160.94
2023-04-11T15:30:25.622Z,97156.44
2023-04-11T15:33:27.566Z,97166.66
2023-04-11T15:36:29.172Z,97161.03
2023-04-11T15:39:30.933Z,97156.19
2023-04-11T15:42:35.165Z,97152.59
2023-04-11T15:45:38.204Z,97153.47
2023-04-11T15:48:39.672Z,97143.28
2023-04-11T15:51:41.287Z,97146.06
2023-04-11T15:54:43.368Z,97128.44
2023-04-11T15:57:44.767Z,97129.22
2023-04-11T16:00:46.910Z,97124.94
2023-04-11T16:03:49.285Z,97142.34
2023-04-11T16:06:51.031Z,97128.69
2023-04-11T16:09:52.528Z,97128.16
2023-04-11T16:12:53.980Z,97129.34
2023-04-11T16:15:55.616Z,97121.38
2023-04-11T16:18:57.191Z,97121.66
2023-04-11T16:21:58.812Z,97124.34
2023-04-11T16:25:03.319Z,97114.00
2023-04-11T16:28:04.857Z,97122.69
2023-04-11T16:31:06.756Z,97115.94
2023-04-11T16:34:08.269Z,97111.28
2023-04-11T16:37:09.721Z,97102.19
2023-04-11T16:40:11.506Z,97104.00
2023-04-11T16:43:13.353Z,97096.16
2023-04-11T16:46:15.914Z,97094.72
2023-04-11T16:49:18.235Z,97090.38
2023-04-11T16:52:19.670Z,97097.13
2023-04-11T16:55:21.181Z,97093.00
2023-04-11T16:58:23.118Z,97086.50
2023-04-11T17:01:24.665Z,97078.13
2023-04-11T17:04:26.238Z,97082.31
2023-04-11T17:07:28.425Z,97072.41
2023-04-11T17:10:29.897Z,97076.72
2023-04-11T17:13:31.781Z,97080.84
2023-04-11T17:16:33.316Z,97071.06
2023-04-11T17:19:34.862Z,97077.56
2023-04-11T17:22:36.825Z,97072.50
2023-04-11T17:25:38.361Z,97069.59
2023-04-11T17:28:40.816Z,97084.16
2023-04-11T17:31:42.270Z,97069.03
2023-04-11T17:34:43.790Z,97074.41
2023-04-11T17:37:45.208Z,97068.47
2023-04-11T17:40:46.679Z,97068.50
2023-04-11T17:43:48.130Z,97059.28
2023-04-11T17:46:49.700Z,97063.50
2023-04-11T17:49:51.291Z,97065.00
2023-04-11T17:52:53.108Z,97061.53
2023-04-11T17:55:54.627Z,97061.84
2023-04-11T17:58:56.116Z,97054.16
2023-04-11T18:01:57.680Z,97061.63
2023-04-11T18:05:00.867Z,97065.81
2023-04-11T18:08:03.653Z,97061.03
2023-04-11T18:11:05.347Z,97061.50
2023-04-11T18:14:06.980Z,97056.97
2023-04-11T18:17:08.436Z,97053.09
2023-04-11T18:20:11.986Z,97052.94
2023-04-11T18:23:13.488Z,97048.50
2023-04-11T18:26:14.974Z,97055.84
2023-04-11T18:29:16.521Z,97044.34
2023-04-11T18:32:18.007Z,97045.34
2023-04-11T18:35:20.246Z,97054.25
2023-04-11T18:38:22.233Z,97060.97
2023-04-11T18:41:24.863Z,97049.91
2023-04-11T18:44:26.379Z,97056.97
2023-04-11T18:47:27.956Z,97059.59
2023-04-11T18:50:30.641Z,97053.06
2023-04-11T18:53:32.406Z,97059.44
2023-04-11T18:56:36.402Z,97064.53
2023-04-11T18:59:43.605Z,97061.31
2023-04-11T19:02:46.753Z,97063.00
2023-04-11T19:05:49.344Z,97061.63
2023-04-11T19:08:52.039Z,97061.63
2023-04-11T19:11:53.984Z,97049.72
2023-04-11T19:14:55.865Z,97051.22
2023-04-11T19:17:57.740Z,97045.72
2023-04-11T19:20:59.366Z,97045.66
2023-04-11T19:24:00.853Z,97045.44
2023-04-11T19:27:02.443Z,97041.34
2023-04-11T19:30:04.321Z,97034.81
2023-04-11T19:33:05.835Z,97032.53
2023-04-11T19:36:07.487Z,97025.31
2023-04-11T19:39:10.542Z,97025.41
2023-04-11T19:42:12.504Z,97029.25
2023-04-11T19:45:14.116Z,97016.13
2023-04-11T19:48:16.243Z,97013.03
2023-04-11T19:51:17.911Z,97012.66
2023-04-11T19:54:19.469Z,97002.63
2023-04-11T19:57:22.122Z,96996.91
2023-04-11T20:00:25.051Z,97001.00
2023-04-11T20:03:27.616Z,96998.69
2023-04-11T20:06:29.424Z,96992.63
2023-04-11T20:09:31.001Z,96990.38
2023-04-11T20:12:32.454Z,96985.03
2023-04-11T20:15:33.918Z,96980.69
2023-04-11T20:18:35.450Z,96962.22
2023-04-11T20:21:37.092Z,96971.50
2023-04-11T20:24:38.713Z,96964.59
2023-04-11T20:27:41.274Z,96954.56
2023-04-11T20:30:42.906Z,96954.34
2023-04-11T20:33:47.524Z,96945.81
2023-04-11T20:36:49.046Z,96954.94
2023-04-11T20:39:51.554Z,96945.44
2023-04-11T20:42:53.213Z,96949.53
2023-04-11T20:45:55.869Z,96936.84
2023-04-11T20:48:57.427Z,96939.81
2023-04-11T20:52:00.021Z,96934.47
2023-04-11T20:55:02.525Z,96940.16
2023-04-11T20:58:08.271Z,96935.50
2023-04-11T21:01:09.811Z,96934.13
2023-04-11T21:04:11.651Z,96928.38
2023-04-11T21:07:13.214Z,96922.97
2023-04-11T21:10:15.620Z,96937.81
2023-04-11T21:13:17.092Z,96931.63
2023-04-11T21:16:18.641Z,96933.91
2023-04-11T21:19:20.235Z,96927.75
2023-04-11T21:22:21.674Z,96933.06
2023-04-11T21:25:23.944Z,96929.56
2023-04-11T21:28:25.789Z,96928.13
2023-04-11T21:31:27.275Z,96938.88
2023-04-11T21:34:28.756Z,96940.06
2023-04-11T21:37:30.334Z,96930.41
2023-04-11T21:40:31.986Z,96927.53
2023-04-11T21:43:33.407Z,96924.84
2023-04-11T21:46:34.945Z,96935.75
2023-04-11T21:49:36.519Z,96937.31
2023-04-11T21:52:38.053Z,96932.81
2023-04-11T21:55:44.554Z,96928.38
2023-04-11T21:58:46.378Z,96924.28
2023-04-11T22:01:48.225Z,96917.13
2023-04-11T22:05:04.924Z,96917.03
2023-04-11T22:08:13.178Z,96911.13
2023-04-11T22:11:15.073Z,96901.16
2023-04-11T22:14:18.055Z,96902.22
2023-04-11T22:17:19.562Z,96903.25
2023-04-11T22:20:21.082Z,96904.13
2023-04-11T22:23:24.934Z,96893.13
2023-04-11T22:26:34.186Z,96886.66
2023-04-11T22:29:35.795Z,96883.59
2023-04-11T22:32:37.947Z,96872.53
2023-04-11T22:35:40.247Z,96863.47
2023-04-11T22:38:41.701Z,96866.97
2023-04-11T22:41:47.699Z,96862.50
2023-04-11T22:44:49.247Z,96848.28
2023-04-11T22:47:54.278Z,96842.78
2023-04-11T22:50:59.099Z,96836.31
2023-04-11T22:54:01.058Z,96845.16
2023-04-11T22:57:02.573Z,96844.50
2023-04-11T23:00:07.772Z,96838.53
2023-04-11T23:03:09.951Z,96833.22
2023-04-11T23:06:11.667Z,96826.41
2023-04-11T23:09:14.958Z,96818.53
2023-04-11T23:12:16.974Z,96814.84
2023-04-11T23:15:19.282Z,96805.06
2023-04-11T23:18:20.750Z,96789.56
2023-04-11T23:21:22.214Z,96779.31
2023-04-11T23:24:24.050Z,96774.91
2023-04-11T23:27:25.570Z,96759.22
2023-04-11T23:30:27.155Z,96755.53
2023-04-11T23:33:28.597Z,96748.28
2023-04-11T23:36:30.136Z,96747.19
2023-04-11T23:39:31.734Z,96740.88
2023-04-11T23:42:33.208Z,96752.31
2023-04-11T23:45:34.657Z,96739.00
2023-04-11T23:48:36.337Z,96737.94
2023-04-11T23:51:37.769Z,96726.31
2023-04-11T23:54:39.288Z,96727.19
2023-04-11T23:57:40.919Z,96728.19
